sensor_id;sensor_type;location;lat;lon;timestamp;pressure;altitude;pressure_sealevel;temperature;humidity
42511;BME280;28141;51.120;17.114;2023-02-17T00:01:36;102128.11;;;24.51;27.17
42511;BME280;28141;51.120;17.114;2023-02-17T00:04:40;102129.17;;;24.50;27.24
42511;BME280;28141;51.120;17.114;2023-02-17T00:07:43;102128.11;;;24.51;27.06
42511;BME280;28141;51.120;17.114;2023-02-17T00:10:55;102121.32;;;24.54;27.33
42511;BME280;28141;51.120;17.114;2023-02-17T00:13:59;102118.97;;;24.57;26.87
42511;BME280;28141;51.120;17.114;2023-02-17T00:17:28;102117.69;;;24.53;27.05
42511;BME280;28141;51.120;17.114;2023-02-17T00:20:33;102121.52;;;24.52;27.06
42511;BME280;28141;51.120;17.114;2023-02-17T00:23:36;102120.46;;;24.53;27.19
42511;BME280;28141;51.120;17.114;2023-02-17T00:26:39;102131.95;;;24.50;27.03
42511;BME280;28141;51.120;17.114;2023-02-17T00:29:43;102118.09;;;24.50;26.84
42511;BME280;28141;51.120;17.114;2023-02-17T00:32:47;102125.56;;;24.56;27.24
42511;BME280;28141;51.120;17.114;2023-02-17T00:35:51;102119.17;;;24.56;26.85
42511;BME280;28141;51.120;17.114;2023-02-17T00:38:55;102122.60;;;24.58;27.03
42511;BME280;28141;51.120;17.114;2023-02-17T00:41:59;102122.17;;;24.54;27.06
42511;BME280;28141;51.120;17.114;2023-02-17T00:45:03;102120.69;;;24.58;27.14
42511;BME280;28141;51.120;17.114;2023-02-17T00:48:07;102115.80;;;24.60;27.03
42511;BME280;28141;51.120;17.114;2023-02-17T00:51:45;102115.80;;;24.60;27.00
42511;BME280;28141;51.120;17.114;2023-02-17T00:54:49;102103.45;;;24.63;27.04
42511;BME280;28141;51.120;17.114;2023-02-17T00:57:52;102102.81;;;24.67;26.91
42511;BME280;28141;51.120;17.114;2023-02-17T01:00:57;102094.94;;;24.64;26.86
42511;BME280;28141;51.120;17.114;2023-02-17T01:04:01;102092.79;;;24.66;26.63
42511;BME280;28141;51.120;17.114;2023-02-17T01:07:04;102093.69;;;24.73;26.70
42511;BME280;28141;51.120;17.114;2023-02-17T01:10:09;102091.12;;;24.72;26.93
42511;BME280;28141;51.120;17.114;2023-02-17T01:13:13;102087.50;;;24.71;26.96
42511;BME280;28141;51.120;17.114;2023-02-17T01:16:19;102086.24;;;24.74;26.76
42511;BME280;28141;51.120;17.114;2023-02-17T01:19:24;102084.33;;;24.74;26.92
42511;BME280;28141;51.120;17.114;2023-02-17T01:22:27;102086.24;;;24.74;26.82
42511;BME280;28141;51.120;17.114;2023-02-17T01:25:31;102081.76;;;24.73;26.82
42511;BME280;28141;51.120;17.114;2023-02-17T01:29:09;102079.20;;;24.78;26.86
42511;BME280;28141;51.120;17.114;2023-02-17T01:32:13;102074.95;;;24.76;26.83
42511;BME280;28141;51.120;17.114;2023-02-17T01:35:17;102072.39;;;24.81;26.81
42511;BME280;28141;51.120;17.114;2023-02-17T01:38:20;102070.69;;;24.80;26.94
42511;BME280;28141;51.120;17.114;2023-02-17T01:41:25;102070.92;;;24.85;26.56
42511;BME280;28141;51.120;17.114;2023-02-17T01:44:31;102068.80;;;24.87;26.78
42511;BME280;28141;51.120;17.114;2023-02-17T01:47:35;102073.25;;;24.88;26.53
42511;BME280;28141;51.120;17.114;2023-02-17T01:50:49;102064.11;;;24.87;26.62
42511;BME280;28141;51.120;17.114;2023-02-17T01:54:05;102056.62;;;24.81;26.79
42511;BME280;28141;51.120;17.114;2023-02-17T01:57:35;102058.98;;;24.84;26.80
42511;BME280;28141;51.120;17.114;2023-02-17T02:00:42;102043.04;;;24.93;26.54
42511;BME280;28141;51.120;17.114;2023-02-17T02:03:47;102037.08;;;24.96;26.85
42511;BME280;28141;51.120;17.114;2023-02-17T02:06:50;102037.08;;;24.96;26.68
42511;BME280;28141;51.120;17.114;2023-02-17T02:09:56;102034.30;;;24.96;26.79
42511;BME280;28141;51.120;17.114;2023-02-17T02:13:00;102031.95;;;24.99;26.82
42511;BME280;28141;51.120;17.114;2023-02-17T02:16:13;102019.80;;;25.00;26.64
42511;BME280;28141;51.120;17.114;2023-02-17T02:19:58;102009.77;;;24.99;26.64
42511;BME280;28141;51.120;17.114;2023-02-17T02:33:18;102005.26;;;24.92;26.76
42511;BME280;28141;51.120;17.114;2023-02-17T02:39:42;101980.58;;;24.97;26.66
42511;BME280;28141;51.120;17.114;2023-02-17T02:42:47;101983.55;;;25.02;26.61
42511;BME280;28141;51.120;17.114;2023-02-17T02:45:50;101983.78;;;25.07;26.76
42511;BME280;28141;51.120;17.114;2023-02-17T02:48:54;101976.94;;;25.09;26.82
42511;BME280;28141;51.120;17.114;2023-02-17T02:52:35;101974.82;;;25.05;26.58
42511;BME280;28141;51.120;17.114;2023-02-17T03:09:14;101957.55;;;24.96;26.69
42511;BME280;28141;51.120;17.114;2023-02-17T03:12:21;101964.38;;;25.07;26.75
42511;BME280;28141;51.120;17.114;2023-02-17T03:15:33;101970.14;;;25.19;26.53
42511;BME280;28141;51.120;17.114;2023-02-17T03:18:37;101957.55;;;25.16;26.45
42511;BME280;28141;51.120;17.114;2023-02-17T03:25:24;101953.29;;;25.07;26.73
42511;BME280;28141;51.120;17.114;2023-02-17T03:28:27;101956.46;;;25.10;26.33
42511;BME280;28141;51.120;17.114;2023-02-17T03:31:31;101958.17;;;25.12;26.84
42511;BME280;28141;51.120;17.114;2023-02-17T03:34:35;101952.21;;;25.15;26.76
42511;BME280;28141;51.120;17.114;2023-02-17T03:37:38;101963.53;;;25.20;26.58
42511;BME280;28141;51.120;17.114;2023-02-17T03:40:42;101958.41;;;25.17;26.75
42511;BME280;28141;51.120;17.114;2023-02-17T03:44:12;101953.48;;;25.12;26.51
42511;BME280;28141;51.120;17.114;2023-02-17T03:47:15;101950.94;;;25.17;26.15
42511;BME280;28141;51.120;17.114;2023-02-17T03:50:19;101953.92;;;25.16;26.37
42511;BME280;28141;51.120;17.114;2023-02-17T03:53:22;101947.10;;;25.18;26.50
42511;BME280;28141;51.120;17.114;2023-02-17T03:56:26;101955.42;;;25.18;26.54
42511;BME280;28141;51.120;17.114;2023-02-17T03:59:29;101946.89;;;25.20;26.61
42511;BME280;28141;51.120;17.114;2023-02-17T04:02:33;101945.59;;;25.22;26.62
42511;BME280;28141;51.120;17.114;2023-02-17T04:05:36;101945.80;;;25.21;26.38
42511;BME280;28141;51.120;17.114;2023-02-17T04:08:40;101934.95;;;25.19;26.61
42511;BME280;28141;51.120;17.114;2023-02-17T04:12:11;101946.04;;;25.19;26.52
42511;BME280;28141;51.120;17.114;2023-02-17T04:15:14;101943.26;;;25.19;26.55
42511;BME280;28141;51.120;17.114;2023-02-17T04:18:19;101942.81;;;25.22;26.19
42511;BME280;28141;51.120;17.114;2023-02-17T04:21:22;101934.50;;;25.22;26.31
42511;BME280;28141;51.120;17.114;2023-02-17T04:24:26;101937.27;;;25.22;26.50
42511;BME280;28141;51.120;17.114;2023-02-17T04:27:29;101939.39;;;25.20;26.76
42511;BME280;28141;51.120;17.114;2023-02-17T04:30:33;101919.37;;;25.18;26.65
42511;BME280;28141;51.120;17.114;2023-02-17T04:33:37;101917.64;;;25.24;26.56
42511;BME280;28141;51.120;17.114;2023-02-17T04:36:40;101914.45;;;25.27;26.53
42511;BME280;28141;51.120;17.114;2023-02-17T04:40:09;101906.55;;;25.24;26.54
42511;BME280;28141;51.120;17.114;2023-02-17T04:43:13;101896.74;;;25.28;26.14
42511;BME280;28141;51.120;17.114;2023-02-17T04:46:16;101899.73;;;25.26;26.49
42511;BME280;28141;51.120;17.114;2023-02-17T04:49:20;101898.23;;;25.24;26.77
42511;BME280;28141;51.120;17.114;2023-02-17T04:52:23;101900.38;;;25.28;26.33
42511;BME280;28141;51.120;17.114;2023-02-17T04:55:27;101899.31;;;25.29;26.81
42511;BME280;28141;51.120;17.114;2023-02-17T04:58:31;101902.66;;;25.44;26.97
42511;BME280;28141;51.120;17.114;2023-02-17T05:01:35;101896.89;;;25.53;26.79
42511;BME280;28141;51.120;17.114;2023-02-17T05:04:38;101889.20;;;25.55;26.67
42511;BME280;28141;51.120;17.114;2023-02-17T05:08:06;101890.91;;;25.56;26.67
42511;BME280;28141;51.120;17.114;2023-02-17T05:11:10;101876.21;;;25.49;26.69
42511;BME280;28141;51.120;17.114;2023-02-17T05:14:13;101876.21;;;25.49;26.48
42511;BME280;28141;51.120;17.114;2023-02-17T05:17:17;101878.56;;;25.52;26.80
42511;BME280;28141;51.120;17.114;2023-02-17T05:20:20;101879.17;;;25.54;26.83
42511;BME280;28141;51.120;17.114;2023-02-17T05:23:24;101875.96;;;25.57;26.88
42511;BME280;28141;51.120;17.114;2023-02-17T05:26:27;101877.68;;;25.58;26.54
42511;BME280;28141;51.120;17.114;2023-02-17T05:29:31;101870.45;;;25.63;26.68
42511;BME280;28141;51.120;17.114;2023-02-17T05:32:34;101865.72;;;25.64;26.76
42511;BME280;28141;51.120;17.114;2023-02-17T05:36:04;101871.06;;;25.59;26.76
42511;BME280;28141;51.120;17.114;2023-02-17T05:39:08;101869.59;;;25.63;26.76
42511;BME280;28141;51.120;17.114;2023-02-17T05:43:17;101867.85;;;25.68;26.99
42511;BME280;28141;51.120;17.114;2023-02-17T05:46:21;101857.82;;;25.67;26.83
42511;BME280;28141;51.120;17.114;2023-02-17T05:49:25;101847.99;;;25.71;26.64
42511;BME280;28141;51.120;17.114;2023-02-17T05:52:28;101845.22;;;25.71;26.87
42511;BME280;28141;51.120;17.114;2023-02-17T05:55:31;101851.84;;;25.70;26.75
42511;BME280;28141;51.120;17.114;2023-02-17T05:58:35;101842.83;;;25.75;27.09
42511;BME280;28141;51.120;17.114;2023-02-17T06:01:38;101842.18;;;25.79;26.85
42511;BME280;28141;51.120;17.114;2023-02-17T06:04:41;101841.98;;;25.81;26.73
42511;BME280;28141;51.120;17.114;2023-02-17T06:08:11;101847.09;;;25.84;26.83
42511;BME280;28141;51.120;17.114;2023-02-17T06:11:15;101846.46;;;25.82;26.70
42511;BME280;28141;51.120;17.114;2023-02-17T06:14:18;101839.61;;;25.85;26.80
42511;BME280;28141;51.120;17.114;2023-02-17T06:17:21;101849.87;;;25.84;27.06
42511;BME280;28141;51.120;17.114;2023-02-17T06:20:25;101863.11;;;25.75;26.86
42511;BME280;28141;51.120;17.114;2023-02-17T06:23:28;101859.05;;;25.78;26.95
42511;BME280;28141;51.120;17.114;2023-02-17T06:26:32;101860.54;;;25.80;27.16
42511;BME280;28141;51.120;17.114;2023-02-17T06:29:35;101859.44;;;25.88;26.81
42511;BME280;28141;51.120;17.114;2023-02-17T06:32:39;101857.93;;;25.92;26.88
42511;BME280;28141;51.120;17.114;2023-02-17T06:36:07;101858.11;;;25.97;27.02
42511;BME280;28141;51.120;17.114;2023-02-17T06:39:11;101862.16;;;26.01;27.17
42511;BME280;28141;51.120;17.114;2023-02-17T06:42:14;101865.74;;;26.08;26.77
42511;BME280;28141;51.120;17.114;2023-02-17T06:45:17;101854.24;;;26.05;27.59
42511;BME280;28141;51.120;17.114;2023-02-17T06:48:21;101840.53;;;26.10;27.17
42511;BME280;28141;51.120;17.114;2023-02-17T06:51:24;101848.20;;;26.14;27.11
42511;BME280;28141;51.120;17.114;2023-02-17T06:54:28;101844.35;;;26.15;27.20
42511;BME280;28141;51.120;17.114;2023-02-17T06:57:31;101843.45;;;26.22;27.53
42511;BME280;28141;51.120;17.114;2023-02-17T07:00:35;101844.94;;;26.24;27.05
42511;BME280;28141;51.120;17.114;2023-02-17T07:04:04;101845.16;;;26.23;27.25
42511;BME280;28141;51.120;17.114;2023-02-17T07:07:08;101842.79;;;26.26;27.40
42511;BME280;28141;51.120;17.114;2023-02-17T07:10:12;101847.70;;;26.31;27.97
42511;BME280;28141;51.120;17.114;2023-02-17T07:13:16;101841.28;;;26.30;28.02
42511;BME280;28141;51.120;17.114;2023-02-17T07:16:19;101845.55;;;26.33;28.24
42511;BME280;28141;51.120;17.114;2023-02-17T07:19:22;101855.30;;;26.42;28.60
42511;BME280;28141;51.120;17.114;2023-02-17T07:22:26;101853.80;;;26.46;28.33
42511;BME280;28141;51.120;17.114;2023-02-17T07:25:29;101853.57;;;26.47;28.38
42511;BME280;28141;51.120;17.114;2023-02-17T07:28:33;101844.55;;;26.52;28.48
42511;BME280;28141;51.120;17.114;2023-02-17T07:32:02;101839.33;;;26.62;28.28
42511;BME280;28141;51.120;17.114;2023-02-17T07:35:06;101819.87;;;26.62;28.10
42511;BME280;28141;51.120;17.114;2023-02-17T07:38:10;101822.84;;;26.67;28.27
42511;BME280;28141;51.120;17.114;2023-02-17T07:41:17;101814.50;;;26.67;28.11
42511;BME280;28141;51.120;17.114;2023-02-17T07:44:21;101816.66;;;26.65;27.79
42511;BME280;28141;51.120;17.114;2023-02-17T07:47:24;101813.65;;;26.67;28.37
42511;BME280;28141;51.120;17.114;2023-02-17T07:50:28;101811.28;;;26.70;28.31
42511;BME280;28141;51.120;17.114;2023-02-17T07:53:32;101812.05;;;26.77;28.50
42511;BME280;28141;51.120;17.114;2023-02-17T07:57:03;101809.50;;;26.76;28.32
42511;BME280;28141;51.120;17.114;2023-02-17T08:00:07;101806.95;;;26.74;28.14
42511;BME280;28141;51.120;17.114;2023-02-17T08:03:11;101805.88;;;26.75;28.36
42511;BME280;28141;51.120;17.114;2023-02-17T08:06:16;101809.50;;;26.76;28.61
42511;BME280;28141;51.120;17.114;2023-02-17T08:09:20;101814.84;;;26.77;28.39
42511;BME280;28141;51.120;17.114;2023-02-17T08:12:35;101810.21;;;26.71;28.55
42511;BME280;28141;51.120;17.114;2023-02-17T08:16:15;101809.39;;;26.64;28.44
42511;BME280;28141;51.120;17.114;2023-02-17T08:19:18;101795.68;;;26.69;28.23
42511;BME280;28141;51.120;17.114;2023-02-17T08:22:22;101803.27;;;26.80;28.33
42511;BME280;28141;51.120;17.114;2023-02-17T08:25:25;101792.52;;;26.84;27.92
42511;BME280;28141;51.120;17.114;2023-02-17T08:28:29;101799.79;;;26.85;28.36
42511;BME280;28141;51.120;17.114;2023-02-17T08:31:34;101800.63;;;26.92;27.62
42511;BME280;28141;51.120;17.114;2023-02-17T08:34:37;101797.59;;;26.94;27.99
42511;BME280;28141;51.120;17.114;2023-02-17T08:37:40;101806.55;;;26.96;27.81
42511;BME280;28141;51.120;17.114;2023-02-17T08:40:44;101808.66;;;27.00;28.06
42511;BME280;28141;51.120;17.114;2023-02-17T08:44:16;101796.46;;;27.01;28.02
42511;BME280;28141;51.120;17.114;2023-02-17T08:47:20;101787.80;;;27.09;28.38
42511;BME280;28141;51.120;17.114;2023-02-17T08:50:24;101779.07;;;27.06;28.21
42511;BME280;28141;51.120;17.114;2023-02-17T08:53:27;101786.95;;;27.09;28.21
42511;BME280;28141;51.120;17.114;2023-02-17T08:56:32;101783.72;;;27.12;28.05
42511;BME280;28141;51.120;17.114;2023-02-17T08:59:36;101779.77;;;27.19;27.66
42511;BME280;28141;51.120;17.114;2023-02-17T09:02:39;101767.34;;;27.22;28.21
42511;BME280;28141;51.120;17.114;2023-02-17T09:05:47;101775.46;;;27.23;28.07
42511;BME280;28141;51.120;17.114;2023-02-17T09:08:50;101773.30;;;27.25;28.17
42511;BME280;28141;51.120;17.114;2023-02-17T09:12:23;101783.58;;;27.25;27.94
42511;BME280;28141;51.120;17.114;2023-02-17T09:15:27;101769.41;;;27.26;27.62
42511;BME280;28141;51.120;17.114;2023-02-17T09:18:31;101778.61;;;27.27;27.94
42511;BME280;28141;51.120;17.114;2023-02-17T09:21:35;101783.58;;;27.25;28.06
42511;BME280;28141;51.120;17.114;2023-02-17T09:24:38;101780.84;;;27.37;28.06
42511;BME280;28141;51.120;17.114;2023-02-17T09:27:42;101780.78;;;27.43;28.37
42511;BME280;28141;51.120;17.114;2023-02-17T09:30:45;101773.19;;;27.50;28.25
42511;BME280;28141;51.120;17.114;2023-02-17T09:33:49;101774.77;;;27.46;28.13
42511;BME280;28141;51.120;17.114;2023-02-17T09:36:56;101769.88;;;27.42;27.96
42511;BME280;28141;51.120;17.114;2023-02-17T09:39:59;101757.44;;;27.44;27.80
42511;BME280;28141;51.120;17.114;2023-02-17T09:43:31;101758.52;;;27.43;28.11
42511;BME280;28141;51.120;17.114;2023-02-17T09:46:44;101750.41;;;27.42;27.69
42511;BME280;28141;51.120;17.114;2023-02-17T09:49:57;101745.52;;;27.37;28.21
42511;BME280;28141;51.120;17.114;2023-02-17T09:53:16;101753.41;;;27.40;27.69
42511;BME280;28141;51.120;17.114;2023-02-17T09:56:24;101745.69;;;27.42;28.27
42511;BME280;28141;51.120;17.114;2023-02-17T10:00:13;101754.03;;;27.42;28.19
42511;BME280;28141;51.120;17.114;2023-02-17T10:06:43;101733.80;;;27.35;28.31
42511;BME280;28141;51.120;17.114;2023-02-17T10:09:52;101729.95;;;27.36;28.28
42511;BME280;28141;51.120;17.114;2023-02-17T10:13:28;101736.31;;;27.37;28.24
42511;BME280;28141;51.120;17.114;2023-02-17T10:16:40;101729.84;;;27.43;28.25
42511;BME280;28141;51.120;17.114;2023-02-17T10:19:53;101714.45;;;27.40;27.69
42511;BME280;28141;51.120;17.114;2023-02-17T10:23:05;101709.84;;;27.34;28.26
42511;BME280;28141;51.120;17.114;2023-02-17T10:43:26;101683.44;;;27.25;28.44
42511;BME280;28141;51.120;17.114;2023-02-17T10:46:32;101684.80;;;27.34;28.41
42511;BME280;28141;51.120;17.114;2023-02-17T10:49:42;101681.07;;;27.40;28.28
42511;BME280;28141;51.120;17.114;2023-02-17T10:52:48;101675.89;;;27.44;28.34
42511;BME280;28141;51.120;17.114;2023-02-17T10:59:36;101653.63;;;27.44;28.14
42511;BME280;28141;51.120;17.114;2023-02-17T11:02:49;101649.38;;;27.41;28.09
42511;BME280;28141;51.120;17.114;2023-02-17T11:05:57;101631.13;;;27.45;28.71
42511;BME280;28141;51.120;17.114;2023-02-17T11:09:04;101622.29;;;27.48;28.69
42511;BME280;28141;51.120;17.114;2023-02-17T11:12:20;101621.82;;;27.51;27.85
42511;BME280;28141;51.120;17.114;2023-02-17T11:15:26;101615.41;;;27.51;27.87
42511;BME280;28141;51.120;17.114;2023-02-17T11:18:33;101615.78;;;27.54;28.16
42511;BME280;28141;51.120;17.114;2023-02-17T11:25:22;101608.52;;;27.53;28.18
42511;BME280;28141;51.120;17.114;2023-02-17T11:28:26;101599.98;;;27.55;27.98
42511;BME280;28141;51.120;17.114;2023-02-17T11:31:30;101596.97;;;27.56;28.01
42511;BME280;28141;51.120;17.114;2023-02-17T11:34:36;101582.31;;;27.61;28.04
42511;BME280;28141;51.120;17.114;2023-02-17T11:37:41;101578.67;;;27.60;27.99
42511;BME280;28141;51.120;17.114;2023-02-17T11:40:55;101579.90;;;27.65;28.12
42511;BME280;28141;51.120;17.114;2023-02-17T11:44:27;101566.34;;;27.56;28.16
42511;BME280;28141;51.120;17.114;2023-02-17T12:04:26;101516.36;;;27.61;28.50
42511;BME280;28141;51.120;17.114;2023-02-17T12:24:28;101474.37;;;27.86;28.37
42511;BME280;28141;51.120;17.114;2023-02-17T12:34:39;101463.46;;;27.96;29.05
42511;BME280;28141;51.120;17.114;2023-02-17T12:41:34;101463.83;;;28.00;28.93
42511;BME280;28141;51.120;17.114;2023-02-17T12:44:43;101452.17;;;28.03;29.32
42511;BME280;28141;51.120;17.114;2023-02-17T12:47:56;101450.70;;;28.12;29.30
42511;BME280;28141;51.120;17.114;2023-02-17T12:51:11;101444.64;;;28.15;28.31
42511;BME280;28141;51.120;17.114;2023-02-17T12:54:25;101421.17;;;28.11;29.18
42511;BME280;28141;51.120;17.114;2023-02-17T12:58:06;101427.24;;;28.20;29.03
42511;BME280;28141;51.120;17.114;2023-02-17T13:01:13;101419.33;;;28.28;28.58
42511;BME280;28141;51.120;17.114;2023-02-17T13:04:23;101417.83;;;28.38;29.56
42511;BME280;28141;51.120;17.114;2023-02-17T13:17:55;101389.91;;;28.49;28.97
42511;BME280;28141;51.120;17.114;2023-02-17T13:31:22;101368.28;;;28.40;29.19
42511;BME280;28141;51.120;17.114;2023-02-17T13:34:36;101360.59;;;28.47;29.16
42511;BME280;28141;51.120;17.114;2023-02-17T13:37:44;101361.12;;;28.44;29.19
42511;BME280;28141;51.120;17.114;2023-02-17T13:40:50;101352.16;;;28.42;29.58
42511;BME280;28141;51.120;17.114;2023-02-17T13:47:37;101345.30;;;28.32;29.71
42511;BME280;28141;51.120;17.114;2023-02-17T13:50:46;101348.17;;;28.38;29.79
42511;BME280;28141;51.120;17.114;2023-02-17T13:53:50;101339.22;;;28.36;29.51
42511;BME280;28141;51.120;17.114;2023-02-17T13:56:53;101335.25;;;28.31;28.88
42511;BME280;28141;51.120;17.114;2023-02-17T14:00:08;101331.50;;;28.26;29.52
42511;BME280;28141;51.120;17.114;2023-02-17T14:07:02;101302.14;;;28.07;28.79
42511;BME280;28141;51.120;17.114;2023-02-17T14:10:29;101301.66;;;28.10;28.96
42511;BME280;28141;51.120;17.114;2023-02-17T14:13:23;101301.89;;;28.08;29.44
42511;BME280;28141;51.120;17.114;2023-02-17T14:16:37;101287.13;;;28.08;29.13
42511;BME280;28141;51.120;17.114;2023-02-17T14:23:22;101280.55;;;27.85;28.73
42511;BME280;28141;51.120;17.114;2023-02-17T14:29:42;101256.23;;;27.81;29.01
42511;BME280;28141;51.120;17.114;2023-02-17T14:32:46;101247.88;;;27.81;29.52
42511;BME280;28141;51.120;17.114;2023-02-17T14:35:56;101255.14;;;27.82;29.62
42511;BME280;28141;51.120;17.114;2023-02-17T14:39:26;101245.02;;;27.76;29.92
42511;BME280;28141;51.120;17.114;2023-02-17T14:42:30;101230.98;;;27.71;30.53
42511;BME280;28141;51.120;17.114;2023-02-17T14:45:33;101229.88;;;27.72;30.38
42511;BME280;28141;51.120;17.114;2023-02-17T14:48:37;101225.40;;;27.71;30.32
42511;BME280;28141;51.120;17.114;2023-02-17T14:51:40;101219.35;;;27.74;30.33
42511;BME280;28141;51.120;17.114;2023-02-17T14:54:44;101212.46;;;27.76;29.55
42511;BME280;28141;51.120;17.114;2023-02-17T14:57:47;101208.33;;;27.79;30.25
42511;BME280;28141;51.120;17.114;2023-02-17T15:00:50;101203.50;;;27.74;30.29
42511;BME280;28141;51.120;17.114;2023-02-17T15:03:54;101203.74;;;27.73;30.51
42511;BME280;28141;51.120;17.114;2023-02-17T15:06:58;101203.50;;;27.74;29.77
42511;BME280;28141;51.120;17.114;2023-02-17T15:10:02;101188.98;;;27.72;30.33
42511;BME280;28141;51.120;17.114;2023-02-17T15:13:36;101174.13;;;27.67;29.97
42511;BME280;28141;51.120;17.114;2023-02-17T15:16:40;101148.84;;;27.68;29.59
42511;BME280;28141;51.120;17.114;2023-02-17T15:19:44;101144.61;;;27.66;29.95
42511;BME280;28141;51.120;17.114;2023-02-17T15:22:47;101133.72;;;27.64;29.85
42511;BME280;28141;51.120;17.114;2023-02-17T15:25:55;101137.23;;;27.59;29.59
42511;BME280;28141;51.120;17.114;2023-02-17T15:28:58;101130.58;;;27.60;29.82
42511;BME280;28141;51.120;17.114;2023-02-17T15:32:03;101109.30;;;27.54;29.85
42511;BME280;28141;51.120;17.114;2023-02-17T15:35:21;101103.73;;;27.54;29.54
42511;BME280;28141;51.120;17.114;2023-02-17T15:38:51;101086.69;;;27.51;29.81
42511;BME280;28141;51.120;17.114;2023-02-17T15:42:01;101087.46;;;27.46;30.11
42511;BME280;28141;51.120;17.114;2023-02-17T15:45:11;101091.09;;;27.47;30.08
42511;BME280;28141;51.120;17.114;2023-02-17T15:48:25;101073.19;;;27.43;30.22
42511;BME280;28141;51.120;17.114;2023-02-17T15:51:29;101084.80;;;27.40;30.08
42511;BME280;28141;51.120;17.114;2023-02-17T15:54:32;101090.53;;;27.33;29.72
42511;BME280;28141;51.120;17.114;2023-02-17T15:57:39;101097.67;;;27.29;29.77
42511;BME280;28141;51.120;17.114;2023-02-17T16:04:23;101093.61;;;27.20;30.07
42511;BME280;28141;51.120;17.114;2023-02-17T16:07:27;101094.09;;;27.17;29.55
42511;BME280;28141;51.120;17.114;2023-02-17T16:10:31;101095.70;;;27.13;30.26
42511;BME280;28141;51.120;17.114;2023-02-17T16:13:35;101099.21;;;27.08;29.97
42511;BME280;28141;51.120;17.114;2023-02-17T16:16:39;101099.70;;;27.05;30.50
42511;BME280;28141;51.120;17.114;2023-02-17T16:19:42;101093.68;;;26.97;30.39
42511;BME280;28141;51.120;17.114;2023-02-17T16:22:46;101093.20;;;27.00;30.61
42511;BME280;28141;51.120;17.114;2023-02-17T16:25:50;101102.14;;;27.02;30.40
42511;BME280;28141;51.120;17.114;2023-02-17T16:29:21;101108.80;;;27.01;30.53
42511;BME280;28141;51.120;17.114;2023-02-17T16:32:24;101110.23;;;26.92;30.76
42511;BME280;28141;51.120;17.114;2023-02-17T16:35:30;101101.30;;;26.89;31.04
42511;BME280;28141;51.120;17.114;2023-02-17T16:38:34;101103.23;;;26.89;30.85
42511;BME280;28141;51.120;17.114;2023-02-17T16:41:38;101106.50;;;26.86;31.04
42511;BME280;28141;51.120;17.114;2023-02-17T16:44:42;101097.44;;;26.90;31.18
42511;BME280;28141;51.120;17.114;2023-02-17T16:47:53;101109.64;;;26.89;31.06
42511;BME280;28141;51.120;17.114;2023-02-17T16:50:57;101112.30;;;26.84;30.91
42511;BME280;28141;51.120;17.114;2023-02-17T16:54:00;101100.94;;;26.86;30.97
42511;BME280;28141;51.120;17.114;2023-02-17T16:57:34;101110.60;;;26.83;31.08
42511;BME280;28141;51.120;17.114;2023-02-17T17:00:37;101114.59;;;26.87;31.01
42511;BME280;28141;51.120;17.114;2023-02-17T17:03:41;101112.54;;;26.83;31.14
42511;BME280;28141;51.120;17.114;2023-02-17T17:06:48;101113.13;;;26.85;31.18
42511;BME280;28141;51.120;17.114;2023-02-17T17:09:51;101118.45;;;26.86;31.00
42511;BME280;28141;51.120;17.114;2023-02-17T17:12:55;101117.86;;;26.84;31.31
42511;BME280;28141;51.120;17.114;2023-02-17T17:15:59;101126.70;;;26.81;31.21
42511;BME280;28141;51.120;17.114;2023-02-17T17:19:03;101124.77;;;26.82;31.36
42511;BME280;28141;51.120;17.114;2023-02-17T17:22:06;101129.48;;;26.81;31.24
42511;BME280;28141;51.120;17.114;2023-02-17T17:25:10;101124.49;;;26.83;31.70
42511;BME280;28141;51.120;17.114;2023-02-17T17:28:39;101132.26;;;26.81;31.41
42511;BME280;28141;51.120;17.114;2023-02-17T17:31:43;101114.47;;;26.82;31.57
42511;BME280;28141;51.120;17.114;2023-02-17T17:34:47;101111.70;;;26.82;31.38
42511;BME280;28141;51.120;17.114;2023-02-17T17:37:54;101104.11;;;26.78;31.97
42511;BME280;28141;51.120;17.114;2023-02-17T17:41:01;101104.95;;;26.78;31.54
42511;BME280;28141;51.120;17.114;2023-02-17T17:44:05;101108.34;;;26.80;31.40
42511;BME280;28141;51.120;17.114;2023-02-17T17:47:13;101117.25;;;26.82;31.64
42511;BME280;28141;51.120;17.114;2023-02-17T17:50:21;101104.20;;;26.83;31.42
42511;BME280;28141;51.120;17.114;2023-02-17T17:53:25;101105.65;;;26.85;31.34
42511;BME280;28141;51.120;17.114;2023-02-17T17:56:54;101117.62;;;26.86;31.26
42511;BME280;28141;51.120;17.114;2023-02-17T17:59:58;101117.76;;;26.79;31.11
42511;BME280;28141;51.120;17.114;2023-02-17T18:03:01;101120.78;;;26.78;31.41
42511;BME280;28141;51.120;17.114;2023-02-17T18:06:10;101113.05;;;26.80;31.37
42511;BME280;28141;51.120;17.114;2023-02-17T18:09:22;101106.98;;;26.83;31.19
42511;BME280;28141;51.120;17.114;2023-02-17T18:12:27;101097.79;;;26.82;31.14
42511;BME280;28141;51.120;17.114;2023-02-17T18:15:30;101095.52;;;26.79;31.33
42511;BME280;28141;51.120;17.114;2023-02-17T18:18:34;101078.00;;;26.79;31.13
42511;BME280;28141;51.120;17.114;2023-02-17T18:21:38;101081.88;;;26.78;31.47
42511;BME280;28141;51.120;17.114;2023-02-17T18:25:09;101096.71;;;26.83;31.35
42511;BME280;28141;51.120;17.114;2023-02-17T18:28:18;101087.28;;;26.84;31.32
42511;BME280;28141;51.120;17.114;2023-02-17T18:31:21;101073.63;;;26.83;31.13
42511;BME280;28141;51.120;17.114;2023-02-17T18:34:27;101066.40;;;26.82;31.29